createdAt,value
2023-01-20T00:00:47.890Z,5.81
2023-01-20T00:04:51.752Z,5.89
2023-01-20T00:08:54.172Z,6.00
2023-01-20T00:12:54.324Z,5.59
2023-01-20T00:16:54.458Z,5.97
2023-01-20T00:20:57.322Z,5.93
2023-01-20T00:24:57.463Z,5.85
2023-01-20T00:28:59.239Z,5.88
2023-01-20T00:32:59.357Z,5.90
2023-01-20T00:37:02.148Z,5.97
2023-01-20T00:41:02.499Z,5.84
2023-01-20T00:45:02.771Z,5.84
2023-01-20T00:49:02.962Z,5.75
2023-01-20T00:53:05.713Z,5.85
2023-01-20T00:57:06.033Z,5.76
2023-01-20T01:01:06.349Z,5.77
2023-01-20T01:05:06.755Z,5.78
2023-01-20T01:09:09.759Z,5.77
2023-01-20T01:13:10.971Z,5.86
2023-01-20T01:17:11.130Z,5.80
2023-01-20T01:21:14.514Z,5.94
2023-01-20T01:25:17.497Z,5.84
2023-01-20T01:29:17.553Z,5.83
2023-01-20T01:33:17.821Z,5.79
2023-01-20T01:37:18.090Z,5.85
2023-01-20T01:41:21.300Z,5.80
2023-01-20T01:45:27.665Z,5.45
2023-01-20T01:49:34.269Z,5.40
2023-01-20T01:53:45.358Z,5.72
2023-01-20T01:57:49.876Z,5.87
2023-01-20T02:01:55.126Z,5.86
2023-01-20T02:05:57.783Z,5.89
2023-01-20T02:09:57.995Z,5.88
2023-01-20T02:14:01.342Z,6.04
2023-01-20T02:18:24.478Z,6.01
2023-01-20T02:22:39.051Z,6.03
2023-01-20T02:27:04.683Z,5.98
2023-01-20T02:31:36.908Z,6.01
2023-01-20T02:35:46.984Z,6.02
2023-01-20T02:40:17.047Z,5.95
2023-01-20T02:44:31.718Z,5.93
2023-01-20T02:48:39.885Z,5.81
2023-01-20T02:52:47.230Z,5.92
2023-01-20T02:56:49.397Z,5.86
2023-01-20T03:00:56.747Z,5.89
2023-01-20T03:05:07.604Z,5.76
2023-01-20T03:09:16.031Z,5.95
2023-01-20T03:13:25.157Z,5.97
2023-01-20T03:17:25.994Z,5.87
2023-01-20T03:21:26.787Z,5.87
2023-01-20T03:25:30.038Z,5.85
2023-01-20T03:29:31.111Z,5.43
2023-01-20T03:33:31.535Z,5.71
2023-01-20T03:37:32.001Z,5.62
2023-01-20T03:41:51.095Z,5.79
2023-01-20T03:46:02.672Z,5.73
2023-01-20T03:50:12.977Z,5.81
2023-01-20T03:54:21.486Z,5.61
2023-01-20T03:58:30.122Z,5.18
2023-01-20T04:02:31.541Z,5.72
2023-01-20T04:06:34.931Z,5.54
2023-01-20T04:10:39.793Z,5.53
2023-01-20T04:14:42.743Z,5.52
2023-01-20T04:18:49.613Z,5.47
2023-01-20T04:22:56.107Z,5.50
2023-01-20T04:26:56.379Z,5.55
2023-01-20T04:30:59.330Z,5.66
2023-01-20T04:34:59.631Z,5.70
2023-01-20T04:38:59.785Z,5.59
2023-01-20T04:42:59.989Z,5.67
2023-01-20T04:47:03.010Z,5.01
2023-01-20T04:51:07.491Z,5.94
2023-01-20T04:55:08.580Z,5.47
2023-01-20T04:59:08.727Z,5.96
2023-01-20T05:03:11.533Z,5.81
2023-01-20T05:07:11.669Z,5.86
2023-01-20T05:11:11.797Z,5.80
2023-01-20T05:15:13.716Z,5.82
2023-01-20T05:19:17.835Z,5.52
2023-01-20T05:23:18.757Z,5.60
2023-01-20T05:27:19.011Z,5.54
2023-01-20T05:31:19.345Z,5.61
2023-01-20T05:35:22.363Z,5.55
2023-01-20T05:39:22.880Z,5.47
2023-01-20T05:43:23.047Z,5.50
2023-01-20T05:47:23.262Z,5.54
2023-01-20T05:51:26.017Z,5.60
2023-01-20T05:55:26.386Z,5.27
2023-01-20T05:59:27.214Z,5.83
2023-01-20T06:03:27.311Z,5.83
2023-01-20T06:07:30.661Z,5.91
2023-01-20T06:11:30.860Z,5.56
2023-01-20T06:15:31.093Z,5.93
2023-01-20T06:19:31.375Z,5.73
2023-01-20T06:23:34.171Z,5.90
2023-01-20T06:27:34.420Z,5.84
2023-01-20T06:31:34.901Z,5.89
2023-01-20T06:35:34.996Z,5.76
2023-01-20T06:39:37.832Z,5.77
2023-01-20T06:43:40.243Z,5.72
2023-01-20T06:47:40.455Z,5.79
2023-01-20T06:51:41.980Z,5.84
2023-01-20T06:55:44.743Z,5.78
2023-01-20T06:59:44.966Z,6.10
2023-01-20T07:03:46.128Z,6.11
2023-01-20T07:07:47.680Z,5.99
2023-01-20T07:11:50.457Z,6.11
2023-01-20T07:15:50.713Z,6.17
2023-01-20T07:19:50.864Z,6.14
2023-01-20T07:23:52.385Z,6.05
2023-01-20T07:27:55.131Z,6.10
2023-01-20T07:31:55.331Z,5.98
2023-01-20T07:35:57.239Z,6.20
2023-01-20T07:40:01.186Z,6.36
2023-01-20T07:44:04.844Z,5.92
2023-01-20T07:48:06.999Z,6.32
2023-01-20T07:52:08.618Z,6.25
2023-01-20T07:56:13.186Z,6.45
2023-01-20T08:00:18.314Z,6.65
2023-01-20T08:04:18.761Z,6.28
2023-01-20T08:08:19.204Z,6.76
2023-01-20T08:12:20.063Z,6.20
2023-01-20T08:16:24.007Z,6.81
2023-01-20T08:20:25.026Z,6.44
2023-01-20T08:24:32.096Z,6.50
2023-01-20T08:29:17.898Z,5.12
2023-01-20T08:34:01.588Z,6.35
2023-01-20T08:38:11.752Z,6.63
2023-01-20T08:42:32.122Z,7.12
2023-01-20T08:46:45.402Z,6.87
2023-01-20T08:50:50.435Z,7.29
2023-01-20T08:54:56.142Z,6.87
2023-01-20T08:59:07.490Z,6.80
2023-01-20T09:03:08.913Z,7.37
2023-01-20T09:07:14.785Z,7.01
2023-01-20T09:11:18.327Z,7.50
2023-01-20T09:15:20.952Z,7.55
2023-01-20T09:19:21.284Z,7.43
2023-01-20T09:23:24.801Z,7.51
2023-01-20T09:27:25.501Z,7.37
2023-01-20T09:31:26.346Z,7.48
2023-01-20T09:35:27.112Z,7.67
2023-01-20T09:39:42.424Z,8.16
2023-01-20T09:43:58.969Z,8.17
2023-01-20T09:48:15.517Z,8.31
2023-01-20T09:52:42.589Z,7.90
2023-01-20T09:56:55.523Z,7.96
2023-01-20T10:01:09.692Z,7.59
2023-01-20T10:05:17.924Z,7.84
2023-01-20T10:09:29.857Z,7.88
2023-01-20T10:13:41.587Z,7.74
2023-01-20T10:17:52.726Z,8.30
2023-01-20T10:22:02.941Z,8.52
2023-01-20T10:26:12.342Z,8.92
2023-01-20T10:30:32.288Z,9.12
2023-01-20T10:34:43.373Z,9.32
2023-01-20T10:38:58.621Z,10.01
2023-01-20T10:43:20.083Z,9.89
2023-01-20T10:48:07.442Z,10.29
2023-01-20T10:53:13.611Z,8.94
2023-01-20T10:57:19.092Z,11.45
2023-01-20T11:01:22.470Z,10.73
2023-01-20T11:05:37.045Z,10.92
2023-01-20T11:09:40.005Z,11.34
2023-01-20T11:13:40.487Z,11.35
2023-01-20T11:17:42.021Z,11.59
2023-01-20T11:21:44.899Z,12.51
2023-01-20T11:25:45.089Z,12.74
2023-01-20T11:29:51.818Z,12.90
2023-01-20T11:34:03.906Z,12.59
2023-01-20T11:38:27.832Z,12.67
2023-01-20T11:42:30.800Z,12.31
2023-01-20T11:46:35.232Z,11.91
2023-01-20T11:50:39.088Z,11.23
2023-01-20T11:54:41.821Z,11.60
2023-01-20T11:58:55.683Z,11.35
2023-01-20T12:03:02.237Z,10.93
2023-01-20T12:07:08.825Z,10.23
2023-01-20T12:11:15.299Z,10.25
2023-01-20T12:15:22.439Z,11.01
2023-01-20T12:19:32.727Z,10.92
2023-01-20T12:23:48.297Z,11.45
2023-01-20T12:27:56.191Z,11.91
2023-01-20T12:31:56.509Z,11.33
2023-01-20T12:36:43.425Z,12.13
2023-01-20T12:40:51.461Z,12.89
2023-01-20T12:45:01.134Z,13.20
2023-01-20T12:49:39.143Z,13.12
2023-01-20T12:54:12.903Z,12.10
2023-01-20T12:58:33.993Z,11.74
2023-01-20T13:03:40.037Z,10.50
2023-01-20T13:08:03.923Z,9.87
2023-01-20T13:12:34.246Z,9.89
2023-01-20T13:16:43.416Z,9.66
2023-01-20T13:20:48.332Z,9.81
2023-01-20T13:24:55.148Z,9.57
2023-01-20T13:29:00.823Z,9.41
2023-01-20T13:33:16.709Z,9.56
2023-01-20T13:37:31.502Z,9.56
2023-01-20T13:41:53.877Z,9.25
2023-01-20T13:46:47.392Z,9.52
2023-01-20T13:50:50.286Z,9.70
2023-01-20T13:54:51.588Z,9.10
2023-01-20T13:58:54.744Z,9.06
2023-01-20T14:02:55.429Z,8.32
2023-01-20T14:06:57.521Z,8.29
2023-01-20T14:11:18.101Z,8.61
2023-01-20T14:15:40.099Z,8.14
2023-01-20T14:19:42.014Z,8.56
2023-01-20T14:23:42.574Z,8.46
2023-01-20T14:27:47.264Z,8.50
2023-01-20T14:31:50.182Z,8.37
2023-01-20T14:35:50.419Z,8.25
2023-01-20T14:39:52.605Z,8.48
2023-01-20T14:43:52.849Z,8.32
2023-01-20T14:47:56.103Z,8.24
2023-01-20T14:51:57.009Z,8.21
2023-01-20T14:56:04.755Z,8.06
2023-01-20T15:00:23.690Z,7.61
2023-01-20T15:04:26.871Z,7.77
2023-01-20T15:08:30.008Z,7.75
2023-01-20T15:12:43.852Z,7.68
2023-01-20T15:16:53.762Z,7.53
2023-01-20T15:21:16.366Z,7.06
2023-01-20T15:25:17.492Z,6.91
2023-01-20T15:29:24.951Z,7.28
2023-01-20T15:33:26.598Z,7.40
2023-01-20T15:37:29.410Z,6.77
2023-01-20T15:41:29.646Z,7.18
2023-01-20T15:45:30.860Z,6.93
2023-01-20T15:49:31.056Z,6.89
2023-01-20T15:53:33.862Z,6.80
2023-01-20T15:57:34.073Z,6.79
2023-01-20T16:01:34.707Z,6.82
2023-01-20T16:05:34.890Z,6.37
2023-01-20T16:09:38.737Z,6.62
2023-01-20T16:13:38.920Z,6.46
2023-01-20T16:17:39.054Z,6.18
2023-01-20T16:21:39.190Z,5.96
2023-01-20T16:25:43.061Z,5.25
2023-01-20T16:29:43.869Z,5.74
2023-01-20T16:33:44.466Z,4.90
2023-01-20T16:37:45.832Z,5.47
2023-01-20T16:41:51.492Z,5.12
2023-01-20T16:45:55.344Z,5.39
2023-01-20T16:49:55.935Z,4.83
2023-01-20T16:53:58.263Z,5.11
2023-01-20T16:58:01.000Z,5.14
2023-01-20T17:02:01.724Z,5.09
2023-01-20T17:06:01.858Z,4.90
2023-01-20T17:10:02.030Z,4.81
2023-01-20T17:14:07.779Z,4.69
2023-01-20T17:18:08.126Z,4.52
2023-01-20T17:22:08.335Z,4.36
2023-01-20T17:26:10.277Z,4.25
2023-01-20T17:30:15.135Z,4.19
2023-01-20T17:34:15.501Z,4.27
2023-01-20T17:38:15.858Z,4.24
2023-01-20T17:42:17.606Z,4.42
2023-01-20T17:46:23.070Z,4.41
2023-01-20T17:50:23.375Z,4.27
2023-01-20T17:54:23.591Z,4.24
2023-01-20T17:58:23.705Z,3.80
2023-01-20T18:02:26.494Z,4.27
2023-01-20T18:06:29.567Z,4.26
2023-01-20T18:10:29.982Z,4.15
2023-01-20T18:14:30.152Z,3.90
2023-01-20T18:18:33.512Z,3.81
2023-01-20T18:22:33.935Z,3.74
2023-01-20T18:26:38.087Z,3.71
2023-01-20T18:30:38.493Z,3.57
2023-01-20T18:34:41.351Z,3.51
2023-01-20T18:38:43.477Z,3.42
2023-01-20T18:42:45.199Z,3.44
2023-01-20T18:46:45.907Z,3.38
2023-01-20T18:50:48.671Z,3.06
2023-01-20T18:54:49.437Z,3.38
2023-01-20T18:58:49.906Z,3.45
2023-01-20T19:02:53.340Z,3.00
2023-01-20T19:06:56.134Z,3.46
2023-01-20T19:10:56.410Z,2.93
2023-01-20T19:14:56.567Z,3.13
2023-01-20T19:18:59.842Z,3.36
2023-01-20T19:23:02.816Z,3.26
2023-01-20T19:27:03.819Z,2.76
2023-01-20T19:31:09.498Z,3.31
2023-01-20T19:35:11.530Z,3.28
2023-01-20T19:39:14.408Z,3.27
2023-01-20T19:43:14.810Z,3.24
2023-01-20T19:47:14.967Z,3.18
2023-01-20T19:51:19.513Z,3.23
2023-01-20T19:55:22.392Z,2.75
2023-01-20T19:59:22.724Z,3.07
2023-01-20T20:03:22.964Z,2.64
2023-01-20T20:07:23.948Z,3.08
2023-01-20T20:11:26.913Z,2.93
2023-01-20T20:15:27.187Z,2.60
2023-01-20T20:19:28.129Z,2.46
2023-01-20T20:23:29.968Z,1.89
2023-01-20T20:27:32.799Z,2.30
2023-01-20T20:31:35.931Z,1.87
2023-01-20T20:35:38.925Z,2.05
2023-01-20T20:39:39.334Z,2.21
2023-01-20T20:43:42.438Z,2.23
2023-01-20T20:47:42.669Z,1.85
2023-01-20T20:51:42.841Z,2.14
2023-01-20T20:55:43.719Z,2.18
2023-01-20T20:59:58.548Z,1.76
2023-01-20T21:04:00.840Z,1.76
2023-01-20T21:08:01.118Z,1.60
2023-01-20T21:12:01.391Z,1.44
2023-01-20T21:16:09.785Z,1.61
2023-01-20T21:20:12.988Z,1.08
2023-01-20T21:24:14.801Z,1.52
2023-01-20T21:28:16.689Z,1.49
2023-01-20T21:32:19.829Z,1.50
2023-01-20T21:36:19.987Z,1.37
2023-01-20T21:40:20.692Z,1.68
2023-01-20T21:44:34.190Z,1.80
2023-01-20T21:48:49.222Z,1.83
2023-01-20T21:52:49.981Z,1.81
2023-01-20T21:56:51.297Z,1.84
2023-01-20T22:00:51.632Z,1.84
2023-01-20T22:04:54.505Z,1.48
2023-01-20T22:08:54.679Z,1.88
2023-01-20T22:12:54.851Z,1.82
2023-01-20T22:16:55.082Z,1.29
2023-01-20T22:20:57.881Z,1.73
2023-01-20T22:24:58.090Z,1.14
2023-01-20T22:28:58.241Z,1.56
2023-01-20T22:32:58.482Z,1.43
2023-01-20T22:37:01.805Z,0.86
2023-01-20T22:41:07.154Z,1.28
2023-01-20T22:45:08.982Z,1.12
2023-01-20T22:49:09.402Z,0.98
2023-01-20T22:53:12.258Z,1.08
2023-01-20T22:57:13.378Z,1.01
2023-01-20T23:01:16.702Z,0.98
2023-01-20T23:05:17.270Z,0.62
2023-01-20T23:09:20.046Z,1.10
2023-01-20T23:13:21.277Z,0.43
2023-01-20T23:17:21.420Z,1.00
2023-01-20T23:21:22.401Z,0.59
2023-01-20T23:25:25.181Z,1.13
2023-01-20T23:29:25.302Z,1.14
2023-01-20T23:33:25.413Z,1.16
2023-01-20T23:37:25.546Z,0.83
2023-01-20T23:41:28.421Z,1.37
2023-01-20T23:45:28.947Z,1.37
2023-01-20T23:49:29.141Z,1.34
2023-01-20T23:53:32.266Z,1.42
2023-01-20T23:57:35.039Z,1.30
